sensor_id;sensor_type;location;lat;lon;timestamp;P1;durP1;ratioP1;P2;durP2;ratioP2
24337;SDS011;12457;50.832;4.346;2022-09-21T00:00:03;27.33;;;15.25;;
24337;SDS011;12457;50.832;4.346;2022-09-21T00:02:29;26.27;;;14.40;;
24337;SDS011;12457;50.832;4.346;2022-09-21T00:04:55;30.40;;;15.30;;
24337;SDS011;12457;50.832;4.346;2022-09-21T00:07:21;31.38;;;15.10;;
24337;SDS011;12457;50.832;4.346;2022-09-21T00:09:46;20.88;;;13.23;;
24337;SDS011;12457;50.832;4.346;2022-09-21T00:12:12;23.42;;;14.20;;
24337;SDS011;12457;50.832;4.346;2022-09-21T00:14:37;22.65;;;13.38;;
24337;SDS011;12457;50.832;4.346;2022-09-21T00:17:03;24.73;;;14.63;;
24337;SDS011;12457;50.832;4.346;2022-09-21T00:19:29;26.55;;;13.48;;
24337;SDS011;12457;50.832;4.346;2022-09-21T00:21:54;28.88;;;13.77;;
24337;SDS011;12457;50.832;4.346;2022-09-21T00:24:21;28.05;;;14.73;;
24337;SDS011;12457;50.832;4.346;2022-09-21T00:26:47;32.40;;;14.45;;
24337;SDS011;12457;50.832;4.346;2022-09-21T00:29:12;27.30;;;14.57;;
24337;SDS011;12457;50.832;4.346;2022-09-21T00:31:38;21.50;;;13.75;;
24337;SDS011;12457;50.832;4.346;2022-09-21T00:34:04;23.23;;;13.40;;
24337;SDS011;12457;50.832;4.346;2022-09-21T00:36:32;26.33;;;13.00;;
24337;SDS011;12457;50.832;4.346;2022-09-21T00:38:59;27.20;;;12.43;;
24337;SDS011;12457;50.832;4.346;2022-09-21T00:41:26;25.52;;;12.32;;
24337;SDS011;12457;50.832;4.346;2022-09-21T00:46:37;27.00;;;14.63;;
24337;SDS011;12457;50.832;4.346;2022-09-21T00:49:03;25.65;;;13.82;;
24337;SDS011;12457;50.832;4.346;2022-09-21T00:51:29;29.58;;;14.05;;
24337;SDS011;12457;50.832;4.346;2022-09-21T00:54:03;31.67;;;13.88;;
24337;SDS011;12457;50.832;4.346;2022-09-21T00:56:32;27.55;;;14.45;;
24337;SDS011;12457;50.832;4.346;2022-09-21T00:58:59;26.65;;;14.20;;
24337;SDS011;12457;50.832;4.346;2022-09-21T01:01:25;29.73;;;13.70;;
24337;SDS011;12457;50.832;4.346;2022-09-21T01:03:51;25.35;;;13.75;;
24337;SDS011;12457;50.832;4.346;2022-09-21T01:06:20;26.38;;;14.30;;
24337;SDS011;12457;50.832;4.346;2022-09-21T01:08:46;24.80;;;14.52;;
24337;SDS011;12457;50.832;4.346;2022-09-21T01:28:20;21.57;;;14.00;;
24337;SDS011;12457;50.832;4.346;2022-09-21T01:31:00;22.27;;;13.35;;
24337;SDS011;12457;50.832;4.346;2022-09-21T01:33:32;24.50;;;13.57;;
24337;SDS011;12457;50.832;4.346;2022-09-21T01:36:22;28.70;;;15.13;;
24337;SDS011;12457;50.832;4.346;2022-09-21T01:38:51;27.75;;;14.70;;
24337;SDS011;12457;50.832;4.346;2022-09-21T01:41:21;25.25;;;12.75;;
24337;SDS011;12457;50.832;4.346;2022-09-21T01:43:53;27.85;;;13.38;;
24337;SDS011;12457;50.832;4.346;2022-09-21T01:46:24;20.52;;;13.38;;
24337;SDS011;12457;50.832;4.346;2022-09-21T01:48:55;23.98;;;13.32;;
24337;SDS011;12457;50.832;4.346;2022-09-21T01:51:25;21.42;;;13.50;;
24337;SDS011;12457;50.832;4.346;2022-09-21T01:53:54;27.77;;;14.05;;
24337;SDS011;12457;50.832;4.346;2022-09-21T01:56:30;27.30;;;15.25;;
24337;SDS011;12457;50.832;4.346;2022-09-21T02:01:44;23.88;;;14.07;;
24337;SDS011;12457;50.832;4.346;2022-09-21T02:04:15;26.70;;;15.23;;
24337;SDS011;12457;50.832;4.346;2022-09-21T02:06:42;24.85;;;15.32;;
24337;SDS011;12457;50.832;4.346;2022-09-21T02:09:11;27.65;;;14.07;;
24337;SDS011;12457;50.832;4.346;2022-09-21T02:11:37;24.98;;;14.70;;
24337;SDS011;12457;50.832;4.346;2022-09-21T02:14:06;24.88;;;14.85;;
24337;SDS011;12457;50.832;4.346;2022-09-21T02:16:36;22.75;;;14.23;;
24337;SDS011;12457;50.832;4.346;2022-09-21T02:22:00;26.42;;;14.38;;
24337;SDS011;12457;50.832;4.346;2022-09-21T02:24:46;28.27;;;14.75;;
24337;SDS011;12457;50.832;4.346;2022-09-21T02:29:46;31.48;;;14.63;;
24337;SDS011;12457;50.832;4.346;2022-09-21T02:35:07;21.55;;;14.48;;
24337;SDS011;12457;50.832;4.346;2022-09-21T02:42:43;24.23;;;14.10;;
24337;SDS011;12457;50.832;4.346;2022-09-21T02:45:13;28.33;;;14.25;;
24337;SDS011;12457;50.832;4.346;2022-09-21T02:47:53;21.90;;;14.25;;
24337;SDS011;12457;50.832;4.346;2022-09-21T02:53:10;24.33;;;13.88;;
24337;SDS011;12457;50.832;4.346;2022-09-21T02:55:39;29.73;;;14.75;;
24337;SDS011;12457;50.832;4.346;2022-09-21T02:58:06;24.45;;;13.90;;
24337;SDS011;12457;50.832;4.346;2022-09-21T03:00:36;25.08;;;13.60;;
24337;SDS011;12457;50.832;4.346;2022-09-21T03:03:15;22.58;;;13.85;;
24337;SDS011;12457;50.832;4.346;2022-09-21T03:05:49;28.95;;;13.88;;
24337;SDS011;12457;50.832;4.346;2022-09-21T03:08:16;21.55;;;12.77;;
24337;SDS011;12457;50.832;4.346;2022-09-21T03:10:42;26.73;;;13.55;;
24337;SDS011;12457;50.832;4.346;2022-09-21T03:13:09;23.08;;;14.32;;
24337;SDS011;12457;50.832;4.346;2022-09-21T03:15:35;25.40;;;13.23;;
24337;SDS011;12457;50.832;4.346;2022-09-21T03:18:02;27.13;;;13.02;;
24337;SDS011;12457;50.832;4.346;2022-09-21T03:20:34;34.60;;;13.70;;
24337;SDS011;12457;50.832;4.346;2022-09-21T03:23:00;23.98;;;12.90;;
24337;SDS011;12457;50.832;4.346;2022-09-21T03:25:27;27.48;;;14.35;;
24337;SDS011;12457;50.832;4.346;2022-09-21T03:27:53;30.33;;;13.23;;
24337;SDS011;12457;50.832;4.346;2022-09-21T03:30:20;21.48;;;13.10;;
24337;SDS011;12457;50.832;4.346;2022-09-21T03:32:50;18.67;;;12.35;;
24337;SDS011;12457;50.832;4.346;2022-09-21T03:35:17;20.13;;;11.60;;
24337;SDS011;12457;50.832;4.346;2022-09-21T03:37:45;22.35;;;11.88;;
24337;SDS011;12457;50.832;4.346;2022-09-21T03:40:12;18.42;;;11.50;;
24337;SDS011;12457;50.832;4.346;2022-09-21T03:42:39;26.33;;;13.13;;
24337;SDS011;12457;50.832;4.346;2022-09-21T03:45:05;21.08;;;12.25;;
24337;SDS011;12457;50.832;4.346;2022-09-21T03:47:32;21.75;;;12.55;;
24337;SDS011;12457;50.832;4.346;2022-09-21T03:49:59;24.48;;;12.93;;
24337;SDS011;12457;50.832;4.346;2022-09-21T03:52:24;18.60;;;13.13;;
24337;SDS011;12457;50.832;4.346;2022-09-21T03:54:50;21.02;;;12.80;;
24337;SDS011;12457;50.832;4.346;2022-09-21T03:57:16;21.60;;;13.43;;
24337;SDS011;12457;50.832;4.346;2022-09-21T03:59:41;24.92;;;13.07;;
24337;SDS011;12457;50.832;4.346;2022-09-21T04:02:07;22.75;;;13.20;;
24337;SDS011;12457;50.832;4.346;2022-09-21T04:04:33;25.33;;;12.45;;
24337;SDS011;12457;50.832;4.346;2022-09-21T04:06:59;26.45;;;13.25;;
24337;SDS011;12457;50.832;4.346;2022-09-21T04:09:25;23.00;;;13.38;;
24337;SDS011;12457;50.832;4.346;2022-09-21T04:11:51;23.23;;;13.10;;
24337;SDS011;12457;50.832;4.346;2022-09-21T04:14:17;26.25;;;13.57;;
24337;SDS011;12457;50.832;4.346;2022-09-21T04:16:44;23.17;;;13.32;;
24337;SDS011;12457;50.832;4.346;2022-09-21T04:19:09;23.85;;;11.90;;
24337;SDS011;12457;50.832;4.346;2022-09-21T04:21:35;27.27;;;14.15;;
24337;SDS011;12457;50.832;4.346;2022-09-21T04:24:01;20.77;;;13.02;;
24337;SDS011;12457;50.832;4.346;2022-09-21T04:26:29;21.42;;;12.40;;
24337;SDS011;12457;50.832;4.346;2022-09-21T04:28:56;22.23;;;12.88;;
24337;SDS011;12457;50.832;4.346;2022-09-21T04:31:22;19.55;;;12.57;;
24337;SDS011;12457;50.832;4.346;2022-09-21T04:33:50;18.58;;;12.55;;
24337;SDS011;12457;50.832;4.346;2022-09-21T04:36:17;30.38;;;12.38;;
24337;SDS011;12457;50.832;4.346;2022-09-21T04:38:43;25.75;;;11.88;;
24337;SDS011;12457;50.832;4.346;2022-09-21T04:41:10;23.63;;;13.20;;
24337;SDS011;12457;50.832;4.346;2022-09-21T04:43:36;18.38;;;11.77;;
24337;SDS011;12457;50.832;4.346;2022-09-21T04:46:06;18.25;;;10.98;;
24337;SDS011;12457;50.832;4.346;2022-09-21T04:48:34;20.05;;;10.75;;
24337;SDS011;12457;50.832;4.346;2022-09-21T04:51:00;31.55;;;12.25;;
24337;SDS011;12457;50.832;4.346;2022-09-21T04:53:27;20.83;;;12.18;;
24337;SDS011;12457;50.832;4.346;2022-09-21T04:55:53;30.08;;;12.77;;
24337;SDS011;12457;50.832;4.346;2022-09-21T04:58:19;28.33;;;11.68;;
24337;SDS011;12457;50.832;4.346;2022-09-21T05:00:49;23.15;;;11.70;;
24337;SDS011;12457;50.832;4.346;2022-09-21T05:03:19;18.55;;;12.25;;
24337;SDS011;12457;50.832;4.346;2022-09-21T05:05:54;22.17;;;11.82;;
24337;SDS011;12457;50.832;4.346;2022-09-21T05:08:21;22.13;;;12.40;;
24337;SDS011;12457;50.832;4.346;2022-09-21T05:11:07;20.08;;;11.52;;
24337;SDS011;12457;50.832;4.346;2022-09-21T05:13:38;20.98;;;12.77;;
24337;SDS011;12457;50.832;4.346;2022-09-21T05:16:04;26.05;;;12.90;;
24337;SDS011;12457;50.832;4.346;2022-09-21T05:18:30;23.95;;;13.75;;
24337;SDS011;12457;50.832;4.346;2022-09-21T05:20:57;29.42;;;14.10;;
24337;SDS011;12457;50.832;4.346;2022-09-21T05:23:24;24.17;;;12.98;;
24337;SDS011;12457;50.832;4.346;2022-09-21T05:25:51;20.55;;;13.23;;
24337;SDS011;12457;50.832;4.346;2022-09-21T05:28:17;28.70;;;13.95;;
24337;SDS011;12457;50.832;4.346;2022-09-21T05:31:10;22.02;;;11.45;;
24337;SDS011;12457;50.832;4.346;2022-09-21T05:33:29;28.17;;;11.85;;
24337;SDS011;12457;50.832;4.346;2022-09-21T05:38:34;28.70;;;13.50;;
24337;SDS011;12457;50.832;4.346;2022-09-21T05:41:00;32.80;;;12.20;;
24337;SDS011;12457;50.832;4.346;2022-09-21T05:43:26;32.97;;;14.60;;
24337;SDS011;12457;50.832;4.346;2022-09-21T05:45:57;27.83;;;12.00;;
24337;SDS011;12457;50.832;4.346;2022-09-21T05:48:38;26.42;;;13.10;;
24337;SDS011;12457;50.832;4.346;2022-09-21T05:51:24;22.00;;;12.68;;
24337;SDS011;12457;50.832;4.346;2022-09-21T05:59:47;25.33;;;12.43;;
24337;SDS011;12457;50.832;4.346;2022-09-21T06:05:06;41.17;;;17.42;;
24337;SDS011;12457;50.832;4.346;2022-09-21T06:07:35;28.33;;;14.43;;
24337;SDS011;12457;50.832;4.346;2022-09-21T06:10:01;27.38;;;13.68;;
24337;SDS011;12457;50.832;4.346;2022-09-21T06:12:27;28.25;;;13.27;;
24337;SDS011;12457;50.832;4.346;2022-09-21T06:14:52;26.88;;;16.30;;
24337;SDS011;12457;50.832;4.346;2022-09-21T06:17:20;26.13;;;13.93;;
24337;SDS011;12457;50.832;4.346;2022-09-21T06:19:46;23.05;;;13.63;;
24337;SDS011;12457;50.832;4.346;2022-09-21T06:22:12;23.30;;;13.65;;
24337;SDS011;12457;50.832;4.346;2022-09-21T06:24:37;37.38;;;14.45;;
24337;SDS011;12457;50.832;4.346;2022-09-21T06:27:03;25.88;;;13.77;;
24337;SDS011;12457;50.832;4.346;2022-09-21T06:29:29;31.85;;;14.43;;
24337;SDS011;12457;50.832;4.346;2022-09-21T06:31:54;32.30;;;13.10;;
24337;SDS011;12457;50.832;4.346;2022-09-21T06:34:20;33.97;;;14.00;;
24337;SDS011;12457;50.832;4.346;2022-09-21T06:36:45;28.40;;;13.48;;
24337;SDS011;12457;50.832;4.346;2022-09-21T06:39:11;34.88;;;13.68;;
24337;SDS011;12457;50.832;4.346;2022-09-21T06:41:37;26.80;;;13.15;;
24337;SDS011;12457;50.832;4.346;2022-09-21T06:44:02;31.10;;;12.90;;
24337;SDS011;12457;50.832;4.346;2022-09-21T06:46:28;25.23;;;13.93;;
24337;SDS011;12457;50.832;4.346;2022-09-21T06:48:54;32.65;;;13.93;;
24337;SDS011;12457;50.832;4.346;2022-09-21T06:51:19;37.60;;;12.40;;
24337;SDS011;12457;50.832;4.346;2022-09-21T06:53:45;32.05;;;14.07;;
24337;SDS011;12457;50.832;4.346;2022-09-21T06:56:12;28.30;;;13.75;;
24337;SDS011;12457;50.832;4.346;2022-09-21T06:58:38;31.02;;;13.88;;
24337;SDS011;12457;50.832;4.346;2022-09-21T07:01:08;27.60;;;14.43;;
24337;SDS011;12457;50.832;4.346;2022-09-21T07:03:35;39.92;;;13.80;;
24337;SDS011;12457;50.832;4.346;2022-09-21T07:06:01;29.15;;;14.68;;
24337;SDS011;12457;50.832;4.346;2022-09-21T07:08:27;29.77;;;14.02;;
24337;SDS011;12457;50.832;4.346;2022-09-21T07:10:52;30.35;;;14.35;;
24337;SDS011;12457;50.832;4.346;2022-09-21T07:13:21;40.63;;;13.00;;
24337;SDS011;12457;50.832;4.346;2022-09-21T07:15:47;34.00;;;13.25;;
24337;SDS011;12457;50.832;4.346;2022-09-21T07:18:13;33.95;;;12.32;;
24337;SDS011;12457;50.832;4.346;2022-09-21T07:20:39;31.38;;;13.20;;
24337;SDS011;12457;50.832;4.346;2022-09-21T07:23:12;27.45;;;13.30;;
24337;SDS011;12457;50.832;4.346;2022-09-21T07:25:39;39.80;;;13.90;;
24337;SDS011;12457;50.832;4.346;2022-09-21T07:28:05;36.40;;;13.68;;
24337;SDS011;12457;50.832;4.346;2022-09-21T07:30:31;31.52;;;13.02;;
24337;SDS011;12457;50.832;4.346;2022-09-21T07:32:57;29.42;;;13.65;;
24337;SDS011;12457;50.832;4.346;2022-09-21T07:35:23;31.20;;;13.50;;
24337;SDS011;12457;50.832;4.346;2022-09-21T07:37:49;29.63;;;12.75;;
24337;SDS011;12457;50.832;4.346;2022-09-21T07:40:14;42.70;;;13.50;;
24337;SDS011;12457;50.832;4.346;2022-09-21T07:42:40;28.02;;;13.48;;
24337;SDS011;12457;50.832;4.346;2022-09-21T07:45:06;26.08;;;13.30;;
24337;SDS011;12457;50.832;4.346;2022-09-21T07:47:32;39.85;;;14.20;;
24337;SDS011;12457;50.832;4.346;2022-09-21T07:49:57;36.42;;;14.98;;
24337;SDS011;12457;50.832;4.346;2022-09-21T07:52:23;35.70;;;14.40;;
24337;SDS011;12457;50.832;4.346;2022-09-21T07:54:48;29.00;;;13.75;;
24337;SDS011;12457;50.832;4.346;2022-09-21T07:57:14;33.50;;;14.00;;
24337;SDS011;12457;50.832;4.346;2022-09-21T07:59:58;38.88;;;15.35;;
24337;SDS011;12457;50.832;4.346;2022-09-21T08:02:24;37.38;;;14.55;;
24337;SDS011;12457;50.832;4.346;2022-09-21T08:04:50;46.30;;;14.88;;
24337;SDS011;12457;50.832;4.346;2022-09-21T08:07:16;31.10;;;14.60;;
24337;SDS011;12457;50.832;4.346;2022-09-21T08:09:41;33.47;;;14.23;;
24337;SDS011;12457;50.832;4.346;2022-09-21T08:12:07;50.92;;;15.95;;
24337;SDS011;12457;50.832;4.346;2022-09-21T08:14:35;28.48;;;14.00;;
24337;SDS011;12457;50.832;4.346;2022-09-21T08:17:00;30.83;;;14.27;;
24337;SDS011;12457;50.832;4.346;2022-09-21T08:19:26;38.53;;;14.23;;
24337;SDS011;12457;50.832;4.346;2022-09-21T08:21:52;39.53;;;15.30;;
24337;SDS011;12457;50.832;4.346;2022-09-21T08:24:18;35.40;;;13.77;;
24337;SDS011;12457;50.832;4.346;2022-09-21T08:26:44;35.28;;;14.65;;
24337;SDS011;12457;50.832;4.346;2022-09-21T08:29:10;39.33;;;14.95;;
24337;SDS011;12457;50.832;4.346;2022-09-21T08:31:38;36.83;;;14.45;;
24337;SDS011;12457;50.832;4.346;2022-09-21T08:34:04;35.88;;;14.60;;
24337;SDS011;12457;50.832;4.346;2022-09-21T08:36:30;39.85;;;15.02;;
24337;SDS011;12457;50.832;4.346;2022-09-21T08:38:56;42.45;;;14.40;;
24337;SDS011;12457;50.832;4.346;2022-09-21T08:44:28;37.55;;;14.18;;
24337;SDS011;12457;50.832;4.346;2022-09-21T08:47:05;20.63;;;6.47;;
24337;SDS011;12457;50.832;4.346;2022-09-21T08:49:37;9.57;;;5.03;;
24337;SDS011;12457;50.832;4.346;2022-09-21T08:52:06;15.48;;;4.70;;
24337;SDS011;12457;50.832;4.346;2022-09-21T08:57:13;14.43;;;3.83;;
24337;SDS011;12457;50.832;4.346;2022-09-21T08:59:42;12.70;;;4.03;;
24337;SDS011;12457;50.832;4.346;2022-09-21T09:02:24;7.63;;;4.15;;
24337;SDS011;12457;50.832;4.346;2022-09-21T09:19:50;7.72;;;2.90;;
24337;SDS011;12457;50.832;4.346;2022-09-21T09:23:38;8.02;;;2.50;;
24337;SDS011;12457;50.832;4.346;2022-09-21T09:25:49;24.60;;;3.33;;
24337;SDS011;12457;50.832;4.346;2022-09-21T09:28:25;11.57;;;2.85;;
24337;SDS011;12457;50.832;4.346;2022-09-21T09:31:17;11.15;;;2.70;;
24337;SDS011;12457;50.832;4.346;2022-09-21T09:36:23;11.45;;;3.67;;
24337;SDS011;12457;50.832;4.346;2022-09-21T09:41:41;12.98;;;3.30;;
24337;SDS011;12457;50.832;4.346;2022-09-21T09:52:28;20.60;;;11.02;;
24337;SDS011;12457;50.832;4.346;2022-09-21T09:54:55;17.58;;;4.93;;
24337;SDS011;12457;50.832;4.346;2022-09-21T09:57:26;6.95;;;2.70;;
24337;SDS011;12457;50.832;4.346;2022-09-21T09:59:59;9.05;;;2.03;;
24337;SDS011;12457;50.832;4.346;2022-09-21T10:02:28;8.30;;;2.33;;
24337;SDS011;12457;50.832;4.346;2022-09-21T10:04:56;8.38;;;2.53;;
24337;SDS011;12457;50.832;4.346;2022-09-21T10:07:39;4.45;;;1.90;;
24337;SDS011;12457;50.832;4.346;2022-09-21T10:13:21;10.85;;;2.28;;
24337;SDS011;12457;50.832;4.346;2022-09-21T10:15:50;10.23;;;2.60;;
24337;SDS011;12457;50.832;4.346;2022-09-21T10:18:33;6.05;;;2.30;;
24337;SDS011;12457;50.832;4.346;2022-09-21T10:21:00;5.40;;;1.50;;
24337;SDS011;12457;50.832;4.346;2022-09-21T10:23:29;6.38;;;1.88;;
24337;SDS011;12457;50.832;4.346;2022-09-21T10:26:29;7.60;;;1.70;;
24337;SDS011;12457;50.832;4.346;2022-09-21T10:28:55;8.40;;;2.08;;
24337;SDS011;12457;50.832;4.346;2022-09-21T10:31:26;16.42;;;1.92;;
24337;SDS011;12457;50.832;4.346;2022-09-21T10:34:14;10.80;;;1.60;;
24337;SDS011;12457;50.832;4.346;2022-09-21T10:36:40;7.00;;;1.45;;
24337;SDS011;12457;50.832;4.346;2022-09-21T10:39:24;11.40;;;2.10;;
24337;SDS011;12457;50.832;4.346;2022-09-21T10:44:24;5.30;;;1.25;;
24337;SDS011;12457;50.832;4.346;2022-09-21T10:46:53;6.10;;;1.50;;
24337;SDS011;12457;50.832;4.346;2022-09-21T10:49:21;3.80;;;1.40;;
24337;SDS011;12457;50.832;4.346;2022-09-21T10:51:51;4.30;;;1.48;;
24337;SDS011;12457;50.832;4.346;2022-09-21T10:54:22;5.93;;;1.70;;
24337;SDS011;12457;50.832;4.346;2022-09-21T10:57:12;7.72;;;1.98;;
24337;SDS011;12457;50.832;4.346;2022-09-21T10:59:40;5.60;;;1.75;;
24337;SDS011;12457;50.832;4.346;2022-09-21T11:10:32;6.38;;;1.50;;
24337;SDS011;12457;50.832;4.346;2022-09-21T11:16:28;6.30;;;1.02;;
24337;SDS011;12457;50.832;4.346;2022-09-21T11:19:10;6.70;;;1.10;;
24337;SDS011;12457;50.832;4.346;2022-09-21T11:44:04;8.07;;;1.77;;
24337;SDS011;12457;50.832;4.346;2022-09-21T11:57:51;2.25;;;1.02;;
24337;SDS011;12457;50.832;4.346;2022-09-21T12:00:33;7.05;;;1.55;;
24337;SDS011;12457;50.832;4.346;2022-09-21T12:12:19;3.38;;;1.20;;
24337;SDS011;12457;50.832;4.346;2022-09-21T12:14:54;7.05;;;1.63;;
24337;SDS011;12457;50.832;4.346;2022-09-21T12:23:09;2.58;;;1.00;;
24337;SDS011;12457;50.832;4.346;2022-09-21T12:25:42;7.88;;;1.30;;
24337;SDS011;12457;50.832;4.346;2022-09-21T12:28:32;9.02;;;1.65;;
24337;SDS011;12457;50.832;4.346;2022-09-21T12:31:11;5.55;;;1.20;;
24337;SDS011;12457;50.832;4.346;2022-09-21T12:33:54;6.25;;;1.65;;
24337;SDS011;12457;50.832;4.346;2022-09-21T12:39:19;6.50;;;1.20;;
24337;SDS011;12457;50.832;4.346;2022-09-21T12:42:14;3.85;;;1.23;;
24337;SDS011;12457;50.832;4.346;2022-09-21T12:44:49;4.50;;;1.50;;
24337;SDS011;12457;50.832;4.346;2022-09-21T12:47:21;4.50;;;1.25;;
24337;SDS011;12457;50.832;4.346;2022-09-21T12:49:58;4.75;;;0.90;;
24337;SDS011;12457;50.832;4.346;2022-09-21T12:52:30;3.80;;;1.45;;
24337;SDS011;12457;50.832;4.346;2022-09-21T13:00:09;4.88;;;1.20;;
24337;SDS011;12457;50.832;4.346;2022-09-21T13:02:47;4.95;;;1.58;;
24337;SDS011;12457;50.832;4.346;2022-09-21T13:05:35;9.68;;;1.45;;
24337;SDS011;12457;50.832;4.346;2022-09-21T13:08:10;4.95;;;1.27;;
24337;SDS011;12457;50.832;4.346;2022-09-21T13:10:40;8.18;;;1.25;;
24337;SDS011;12457;50.832;4.346;2022-09-21T13:13:22;2.58;;;1.20;;
24337;SDS011;12457;50.832;4.346;2022-09-21T13:15:52;4.95;;;1.27;;
24337;SDS011;12457;50.832;4.346;2022-09-21T13:20:59;4.47;;;1.20;;
24337;SDS011;12457;50.832;4.346;2022-09-21T13:23:28;4.28;;;1.40;;
24337;SDS011;12457;50.832;4.346;2022-09-21T13:26:01;3.45;;;0.90;;
24337;SDS011;12457;50.832;4.346;2022-09-21T13:31:29;5.20;;;1.08;;
24337;SDS011;12457;50.832;4.346;2022-09-21T13:34:19;4.47;;;1.13;;
24337;SDS011;12457;50.832;4.346;2022-09-21T13:37:12;7.53;;;1.33;;
24337;SDS011;12457;50.832;4.346;2022-09-21T13:47:56;2.92;;;1.05;;
24337;SDS011;12457;50.832;4.346;2022-09-21T13:53:04;6.75;;;1.10;;
24337;SDS011;12457;50.832;4.346;2022-09-21T13:55:38;4.78;;;1.52;;
24337;SDS011;12457;50.832;4.346;2022-09-21T13:58:18;5.53;;;1.30;;
24337;SDS011;12457;50.832;4.346;2022-09-21T14:03:18;5.25;;;1.27;;
24337;SDS011;12457;50.832;4.346;2022-09-21T14:05:46;3.80;;;1.35;;
24337;SDS011;12457;50.832;4.346;2022-09-21T14:08:30;5.28;;;1.25;;
24337;SDS011;12457;50.832;4.346;2022-09-21T14:13:38;5.22;;;1.30;;
24337;SDS011;12457;50.832;4.346;2022-09-21T14:24:43;4.28;;;1.27;;
24337;SDS011;12457;50.832;4.346;2022-09-21T14:29:59;4.10;;;1.10;;
24337;SDS011;12457;50.832;4.346;2022-09-21T14:32:44;3.63;;;1.40;;
24337;SDS011;12457;50.832;4.346;2022-09-21T14:35:18;6.50;;;1.33;;
24337;SDS011;12457;50.832;4.346;2022-09-21T14:42:44;5.20;;;1.08;;
24337;SDS011;12457;50.832;4.346;2022-09-21T14:45:14;4.10;;;1.60;;
24337;SDS011;12457;50.832;4.346;2022-09-21T14:56:09;5.65;;;1.23;;
24337;SDS011;12457;50.832;4.346;2022-09-21T14:59:09;8.90;;;1.40;;
24337;SDS011;12457;50.832;4.346;2022-09-21T15:01:58;4.05;;;1.35;;
24337;SDS011;12457;50.832;4.346;2022-09-21T15:15:56;10.10;;;1.33;;
24337;SDS011;12457;50.832;4.346;2022-09-21T15:18:32;6.40;;;1.75;;
24337;SDS011;12457;50.832;4.346;2022-09-21T15:21:15;7.28;;;2.08;;
24337;SDS011;12457;50.832;4.346;2022-09-21T15:23:50;7.97;;;1.90;;
24337;SDS011;12457;50.832;4.346;2022-09-21T15:28:54;12.57;;;5.90;;
24337;SDS011;12457;50.832;4.346;2022-09-21T15:31:24;9.27;;;5.20;;
24337;SDS011;12457;50.832;4.346;2022-09-21T15:33:59;4.20;;;1.13;;
24337;SDS011;12457;50.832;4.346;2022-09-21T15:36:28;4.65;;;1.38;;
24337;SDS011;12457;50.832;4.346;2022-09-21T15:38:55;6.28;;;1.92;;
24337;SDS011;12457;50.832;4.346;2022-09-21T15:41:37;5.07;;;1.45;;
24337;SDS011;12457;50.832;4.346;2022-09-21T15:44:05;6.78;;;1.90;;
24337;SDS011;12457;50.832;4.346;2022-09-21T15:46:47;4.90;;;1.25;;
24337;SDS011;12457;50.832;4.346;2022-09-21T15:49:24;5.28;;;1.17;;
24337;SDS011;12457;50.832;4.346;2022-09-21T15:52:02;5.93;;;1.10;;
24337;SDS011;12457;50.832;4.346;2022-09-21T15:55:17;4.95;;;1.38;;
24337;SDS011;12457;50.832;4.346;2022-09-21T15:57:39;7.55;;;1.58;;
24337;SDS011;12457;50.832;4.346;2022-09-21T16:02:39;7.82;;;1.48;;
24337;SDS011;12457;50.832;4.346;2022-09-21T16:05:07;5.40;;;1.52;;
24337;SDS011;12457;50.832;4.346;2022-09-21T16:07:42;8.30;;;1.67;;
24337;SDS011;12457;50.832;4.346;2022-09-21T16:13:01;7.63;;;1.95;;
24337;SDS011;12457;50.832;4.346;2022-09-21T16:16:07;12.55;;;4.93;;
24337;SDS011;12457;50.832;4.346;2022-09-21T16:18:45;3.20;;;1.40;;
24337;SDS011;12457;50.832;4.346;2022-09-21T16:23:45;3.13;;;1.05;;
24337;SDS011;12457;50.832;4.346;2022-09-21T16:26:23;4.60;;;1.70;;
24337;SDS011;12457;50.832;4.346;2022-09-21T16:31:39;8.13;;;4.00;;
24337;SDS011;12457;50.832;4.346;2022-09-21T16:36:49;4.68;;;2.15;;
24337;SDS011;12457;50.832;4.346;2022-09-21T16:39:17;6.88;;;2.50;;
24337;SDS011;12457;50.832;4.346;2022-09-21T16:41:45;5.57;;;2.25;;
24337;SDS011;12457;50.832;4.346;2022-09-21T16:44:14;4.53;;;2.30;;
24337;SDS011;12457;50.832;4.346;2022-09-21T16:46:45;8.65;;;2.15;;
24337;SDS011;12457;50.832;4.346;2022-09-21T16:49:19;5.55;;;2.40;;
24337;SDS011;12457;50.832;4.346;2022-09-21T16:51:47;4.70;;;2.03;;
24337;SDS011;12457;50.832;4.346;2022-09-21T16:54:14;3.60;;;1.85;;
24337;SDS011;12457;50.832;4.346;2022-09-21T16:59:15;5.60;;;2.00;;
24337;SDS011;12457;50.832;4.346;2022-09-21T17:01:47;8.43;;;2.50;;
24337;SDS011;12457;50.832;4.346;2022-09-21T17:04:14;8.60;;;2.67;;
24337;SDS011;12457;50.832;4.346;2022-09-21T17:06:41;9.18;;;2.45;;
24337;SDS011;12457;50.832;4.346;2022-09-21T17:09:10;10.50;;;3.40;;
24337;SDS011;12457;50.832;4.346;2022-09-21T17:11:43;9.25;;;4.18;;
24337;SDS011;12457;50.832;4.346;2022-09-21T17:14:10;7.82;;;3.08;;
24337;SDS011;12457;50.832;4.346;2022-09-21T17:16:46;6.72;;;2.45;;
24337;SDS011;12457;50.832;4.346;2022-09-21T17:19:17;6.05;;;2.45;;
24337;SDS011;12457;50.832;4.346;2022-09-21T17:21:43;10.30;;;5.28;;
24337;SDS011;12457;50.832;4.346;2022-09-21T17:24:10;12.10;;;4.05;;
24337;SDS011;12457;50.832;4.346;2022-09-21T17:26:40;10.23;;;4.35;;
24337;SDS011;12457;50.832;4.346;2022-09-21T17:29:20;9.57;;;3.55;;
24337;SDS011;12457;50.832;4.346;2022-09-21T17:31:48;7.82;;;3.95;;
24337;SDS011;12457;50.832;4.346;2022-09-21T17:34:16;10.10;;;3.40;;
24337;SDS011;12457;50.832;4.346;2022-09-21T17:36:42;10.27;;;4.22;;
24337;SDS011;12457;50.832;4.346;2022-09-21T17:39:07;10.90;;;5.07;;
24337;SDS011;12457;50.832;4.346;2022-09-21T17:41:39;8.63;;;4.50;;
24337;SDS011;12457;50.832;4.346;2022-09-21T17:44:16;14.80;;;5.82;;
24337;SDS011;12457;50.832;4.346;2022-09-21T17:47:04;11.98;;;5.05;;
24337;SDS011;12457;50.832;4.346;2022-09-21T17:49:36;10.80;;;4.75;;
24337;SDS011;12457;50.832;4.346;2022-09-21T17:52:02;9.52;;;3.45;;
24337;SDS011;12457;50.832;4.346;2022-09-21T17:54:46;6.35;;;2.85;;
24337;SDS011;12457;50.832;4.346;2022-09-21T18:00:02;18.17;;;6.03;;
24337;SDS011;12457;50.832;4.346;2022-09-21T18:02:42;8.85;;;3.70;;
24337;SDS011;12457;50.832;4.346;2022-09-21T18:05:16;8.13;;;3.75;;
24337;SDS011;12457;50.832;4.346;2022-09-21T18:07:53;13.88;;;5.38;;
24337;SDS011;12457;50.832;4.346;2022-09-21T18:10:20;12.65;;;4.05;;
24337;SDS011;12457;50.832;4.346;2022-09-21T18:18:36;11.98;;;3.65;;
24337;SDS011;12457;50.832;4.346;2022-09-21T18:26:28;14.27;;;5.10;;
24337;SDS011;12457;50.832;4.346;2022-09-21T18:28:54;11.75;;;5.35;;
24337;SDS011;12457;50.832;4.346;2022-09-21T18:42:28;17.48;;;7.95;;
24337;SDS011;12457;50.832;4.346;2022-09-21T18:45:09;15.15;;;7.30;;
24337;SDS011;12457;50.832;4.346;2022-09-21T18:50:20;14.45;;;6.75;;
24337;SDS011;12457;50.832;4.346;2022-09-21T18:55:48;13.80;;;6.55;;
24337;SDS011;12457;50.832;4.346;2022-09-21T18:58:14;19.38;;;8.25;;
24337;SDS011;12457;50.832;4.346;2022-09-21T19:00:40;18.73;;;9.70;;
24337;SDS011;12457;50.832;4.346;2022-09-21T19:03:09;23.15;;;8.30;;
24337;SDS011;12457;50.832;4.346;2022-09-21T19:05:39;24.48;;;9.27;;
24337;SDS011;12457;50.832;4.346;2022-09-21T19:11:03;15.60;;;8.07;;
24337;SDS011;12457;50.832;4.346;2022-09-21T19:29:56;22.95;;;10.75;;
24337;SDS011;12457;50.832;4.346;2022-09-21T19:32:46;19.45;;;9.30;;
24337;SDS011;12457;50.832;4.346;2022-09-21T19:35:28;16.13;;;9.18;;